Latest Coastal Weather Observations for Nullarbor

IDS60701

Issued at 4:41 pm CDT Monday 6 December 2021 (issued every 10 minutes, with the page automatically refreshed every 10 minutes)

About coastal observations | Map of coastal stations | Coastal observations for SA | Marine services | Other Formats
Station Details ID: 018106 Name: NULLARBOR Lat: -31.45 Lon: 130.90 Height: 64.0 m
Data from the previous 72 hours. | See also: Recent months at Nullarbor
Date/Time
CDT
Wind Sea
Height
m
Swell Vis
km
Cloud Weather Temp
°C
Press
MSL
hPa
Rain since
9am
mm
Dir  Spd
kts
Gust
kts
Height
m
Period
s
Dir
06/04:30pm S 15 19 - - - - 10 Partly cloudy - 20.3 1015.7 0.0
06/04:00pm S 16 21 - - - - 10 Partly cloudy - 20.6 1015.7 0.0
06/03:30pm SSE 15 20 - - - - 10 Cloudy - 20.7 1015.9 0.0
06/03:00pm SSE 15 19 - - - - 10 Mostly cloudy - 20.5 1016.1 0.0
06/02:30pm SSE 12 17 - - - - 10 Partly cloudy - 21.3 1016.0 0.0
06/02:00pm SSE 13 18 - - - - 10 Partly cloudy - 20.7 1016.1 0.0
06/01:30pm SSE 12 16 - - - - 10 Partly cloudy - 20.5 1015.8 0.0
06/01:00pm SSE 12 18 - - - - 10 Partly cloudy - 20.9 1015.7 0.0
06/12:30pm SE 11 15 - - - - 10 Partly cloudy - 20.2 1015.7 0.0
06/12:00pm SSE 10 14 - - - - 10 Mostly clear - 20.0 1015.7 0.0
06/11:30am SE 11 14 - - - - 10 Partly cloudy - 19.3 1015.9 0.0
06/11:00am SE 9 13 - - - - 10 Partly cloudy - 18.4 1016.0 0.0
06/10:30am SE 11 14 - - - - 10 Partly cloudy - 18.6 1016.0 0.0
06/10:22am SSE 11 14 - - - - 10 Partly cloudy - 18.5 1016.0 0.0
06/10:00am SE 8 12 - - - - 10 Partly cloudy - 18.3 1016.3 0.0
06/09:54am ESE 8 12 - - - - 10 Partly cloudy - 18.4 1016.1 0.0
06/09:30am E 9 12 - - - - 10 Partly cloudy - 18.0 1015.6 0.0
06/09:00am ESE 10 12 - - - - 10 Mostly clear - 17.6 1015.4 0.0
06/08:30am E 9 11 - - - - 10 Partly cloudy - 16.6 1015.1 0.0
06/08:00am E 6 8 - - - - 10 Partly cloudy - 15.1 1015.1 0.0
06/07:33am ENE 5 7 - - - - 9 Partly cloudy - 13.8 1014.8 0.0
06/07:30am ENE 5 6 - - - - 9 Partly cloudy - 13.6 1014.7 0.0
06/07:00am NE 6 7 - - - - 7 Partly cloudy - 11.5 1014.3 0.0
06/06:30am ESE 5 6 - - - - 10 - - 11.6 1014.3 0.0
06/06:00am SE 5 6 - - - - 10 - - 11.7 1014.1 0.0
06/05:30am SE 7 8 - - - - 10 - - 12.5 1013.8 0.0
06/05:00am SE 7 7 - - - - 10 - - 12.9 1013.5 0.0
06/04:30am ESE 6 7 - - - - 10 - - 13.6 1013.8 0.0
06/04:00am SE 8 9 - - - - 10 - - 14.3 1014.3 0.0
06/03:30am SE 7 8 - - - - 10 Partly cloudy - 14.5 1014.5 0.0
06/03:27am SE 7 9 - - - - 10 Partly cloudy - 14.6 1014.5 0.0
06/03:00am SE 7 8 - - - - 10 Partly cloudy - 14.8 1014.8 0.0
06/02:30am ESE 7 9 - - - - 10 Cloudy - 15.0 1015.0 0.0
06/02:00am ESE 7 9 - - - - 10 Cloudy - 15.1 1015.0 0.0
06/01:35am SE 7 9 - - - - 10 Partly cloudy - 14.9 1015.1 0.0
06/01:30am SE 8 9 - - - - 10 Partly cloudy - 14.8 1015.2 0.0
06/01:00am SE 8 10 - - - - 10 Partly cloudy - 15.0 1015.2 0.0
06/12:30am SE 9 11 - - - - 10 Partly cloudy - 15.2 1015.4 0.0
06/12:00am SE 9 11 - - - - 10 Mostly clear - 15.3 1015.4 0.0
 
Date/Time
CDT
Wind Sea
Height
m
Swell Vis
km
Cloud Weather Temp
°C
Press
MSL
hPa
Rain since
9am
mm
Dir  Spd
kts
Gust
kts
Height
m
Period
s
Dir
05/11:30pm SE 10 13 - - - - 10 Partly cloudy - 15.6 1015.4 0.0
05/11:00pm SE 11 13 - - - - 10 - - 15.7 1014.9 0.0
05/10:30pm SE 10 12 - - - - 10 - - 15.7 1015.0 0.0
05/10:00pm SE 10 13 - - - - 10 - - 15.9 1014.9 0.0
05/09:30pm SE 10 12 - - - - 10 - - 16.1 1015.0 0.0
05/09:00pm SE 11 14 - - - - 10 - - 16.4 1014.9 0.0
05/08:30pm SE 11 15 - - - - 10 - - 17.0 1014.8 0.0
05/08:00pm SE 13 17 - - - - 10 - - 17.9 1014.6 0.0
05/07:30pm SE 15 19 - - - - 10 - - 18.4 1014.5 0.0
05/07:00pm SE 17 22 - - - - 10 - - 19.1 1014.3 0.0
05/06:30pm SE 17 20 - - - - 10 - - 19.5 1014.7 0.0
05/06:00pm SE 15 19 - - - - 10 - - 19.7 1014.7 0.0
05/05:30pm SE 15 18 - - - - 10 - - 20.4 1014.9 0.0
05/05:00pm SSE 13 17 - - - - 10 - - 20.9 1015.0 0.0
05/04:30pm SSE 12 15 - - - - 10 - - 20.5 1015.3 0.0
05/04:00pm SSE 11 15 - - - - 10 - - 20.8 1015.6 0.0
05/03:30pm SSE 10 14 - - - - 10 - - 21.7 1016.1 0.0
05/03:00pm S 11 16 - - - - 10 Mostly clear - 21.7 1016.5 0.0
05/02:30pm ESE 7 9 - - - - 10 Partly cloudy - 21.6 1016.8 0.0
05/02:00pm SE 8 11 - - - - 10 - - 21.3 1017.0 0.0
05/01:30pm ESE 10 14 - - - - 10 - - 20.6 1017.4 0.0
05/01:00pm SE 11 15 - - - - 10 - - 20.9 1017.8 0.0
05/12:30pm ESE 11 13 - - - - 10 Partly cloudy - 19.5 1018.0 0.0
05/12:00pm ESE 10 13 - - - - 10 Cloudy - 18.5 1018.5 0.0
05/11:30am SSE 10 13 - - - - 10 Partly cloudy - 18.2 1019.2 0.0
05/11:00am ESE 10 13 - - - - 10 Partly cloudy - 17.7 1019.4 0.0
05/10:30am ESE 10 13 - - - - 10 Partly cloudy - 16.8 1019.7 0.0
05/10:00am ESE 12 16 - - - - 10 Partly cloudy - 16.9 1019.4 0.0
05/09:30am E 15 19 - - - - 10 Partly cloudy - 16.9 1019.2 0.0
05/09:00am E 13 17 - - - - 10 Cloudy Recent precip. 16.1 1019.2 2.0
05/08:30am ESE 11 14 - - - - 10 Partly cloudy - 15.5 1019.0 2.0
05/08:12am ESE 13 17 - - - - 10 Cloudy - 15.1 1018.8 1.8
05/08:01am SE 13 17 - - - - 7 Partly cloudy - 15.1 1019.3 1.8
05/08:00am SE 13 17 - - - - 8 Partly cloudy - 15.1 1019.3 1.8
05/07:30am SE 13 19 - - - - 8 Partly cloudy - 15.1 1019.1 1.8
05/07:00am SSE 8 10 - - - - 10 Partly cloudy - 15.1 1020.1 1.4
05/06:30am SSE 8 11 - - - - 10 Partly cloudy - 15.1 1019.8 1.4
05/06:00am SE 8 10 - - - - 10 Cloudy - 15.2 1019.6 1.4
05/05:30am SSE 6 9 - - - - 10 Partly cloudy - 15.2 1019.7 1.4
05/05:00am SSE 7 9 - - - - 10 Partly cloudy - 15.1 1019.5 1.4
05/04:30am SSE 7 9 - - - - 10 Partly cloudy - 15.0 1019.5 1.4
05/04:00am SSE 6 7 - - - - 10 Cloudy - 14.9 1019.7 1.4
05/03:30am SSE 5 6 - - - - 10 Partly cloudy - 14.9 1020.1 1.4
05/03:00am ESE 2 4 - - - - 10 Cloudy - 14.9 1020.2 1.4
05/02:30am ESE 6 7 - - - - 10 Partly cloudy - 15.1 1020.2 1.4
05/02:00am ESE 5 7 - - - - 10 Partly cloudy - 15.1 1020.4 1.4
05/01:30am E 7 10 - - - - 10 Partly cloudy - 15.1 1020.1 1.4
05/01:00am E 9 12 - - - - 10 Partly cloudy - 15.2 1020.3 1.4
05/12:30am ESE 13 16 - - - - 10 Partly cloudy - 15.1 1020.2 1.4
05/12:00am SSE 6 7 - - - - 10 Cloudy - 15.1 1021.7 1.4
 
Date/Time
CDT
Wind Sea
Height
m
Swell Vis
km
Cloud Weather Temp
°C
Press
MSL
hPa
Rain since
9am
mm
Dir  Spd
kts
Gust
kts
Height
m
Period
s
Dir
04/11:30pm SSE 5 6 - - - - 10 Cloudy - 15.1 1021.7 1.4
04/11:28pm SSE 4 5 - - - - 10 Cloudy - 15.1 1021.6 1.4
04/11:07pm ESE 6 8 - - - - 10 Partly cloudy - 15.0 1021.1 1.4
04/11:00pm ESE 7 10 - - - - 10 Partly cloudy - 15.0 1021.0 1.4
04/10:30pm ESE 7 9 - - - - 10 Partly cloudy - 15.0 1020.9 1.4
04/10:22pm E 8 11 - - - - 10 Partly cloudy - 15.0 1020.7 1.4
04/10:10pm E 10 14 - - - - 10 Partly cloudy - 15.0 1020.4 1.4
04/10:00pm ESE 9 12 - - - - 10 Partly cloudy - 15.0 1020.5 1.2
04/09:30pm ESE 8 11 - - - - 10 Partly cloudy - 15.1 1020.8 1.2
04/09:00pm ESE 7 9 - - - - 10 Cloudy - 15.2 1021.1 1.2
04/08:30pm ESE 11 14 - - - - 10 Partly cloudy - 15.2 1020.1 1.2
04/08:00pm ESE 9 11 - - - - 8 Partly cloudy - 15.4 1020.7 1.2
04/07:30pm ESE 10 14 - - - - 10 Partly cloudy - 15.5 1020.6 1.0
04/07:00pm ESE 13 17 - - - - 10 Cloudy - 15.5 1020.3 1.0
04/06:38pm ESE 14 18 - - - - 9 Cloudy - 15.5 1019.7 0.8
04/06:30pm ESE 14 19 - - - - 8 Cloudy - 15.5 1019.8 0.8
04/06:18pm ESE 14 18 - - - - 7 Cloudy - 15.6 1020.0 0.6
04/06:15pm ESE 14 18 - - - - 8 Cloudy - 15.5 1020.1 0.6
04/06:03pm ESE 15 18 - - - - 7 Cloudy - 15.8 1020.2 0.4
04/06:00pm ESE 15 18 - - - - 8 Cloudy Rain 15.9 1020.3 0.2
04/05:30pm ESE 12 15 - - - - 10 Partly cloudy - 17.0 1021.1 0.0
04/05:00pm SE 13 17 - - - - 10 - - 17.1 1021.5 0.0
04/04:30pm SE 14 18 - - - - 10 Partly cloudy - 17.7 1021.2 0.0
04/04:00pm ESE 14 18 - - - - 10 Partly cloudy - 17.4 1021.4 0.0
04/03:30pm ESE 17 21 - - - - 10 Partly cloudy - 18.2 1021.1 0.0
04/03:00pm ESE 17 22 - - - - 10 Cloudy - 18.8 1021.2 0.0
04/02:30pm ESE 19 23 - - - - 10 Cloudy - 18.0 1020.7 0.0
04/02:00pm ESE 17 23 - - - - 10 Cloudy - 17.9 1021.3 0.0
04/01:30pm ESE 16 19 - - - - 10 Cloudy - 18.1 1022.4 0.0
04/01:00pm SE 15 18 - - - - 10 Partly cloudy - 16.8 1022.9 0.0
04/12:30pm SE 15 19 - - - - 10 Cloudy - 16.8 1023.6 0.0
04/12:00pm ESE 12 15 - - - - 10 Mostly cloudy - 16.9 1024.1 0.0
04/11:30am E 13 17 - - - - 10 Partly cloudy - 16.8 1024.0 0.0
04/11:00am E 14 17 - - - - 10 Partly cloudy - 16.9 1024.5 0.0
04/10:30am ESE 13 17 - - - - 10 Partly cloudy - 16.9 1024.4 0.0
04/10:00am ESE 13 17 - - - - 10 Partly cloudy - 16.6 1023.9 0.0
04/09:30am ESE 13 17 - - - - 10 Partly cloudy - 16.4 1024.0 0.0
04/09:26am ESE 12 17 - - - - 10 Partly cloudy - 16.4 1023.9 0.0
04/09:00am ESE 14 17 - - - - 10 Cloudy - 16.4 1023.6 0.0
04/08:41am ESE 15 20 - - - - 10 Partly cloudy - 16.2 1022.6 0.0
04/08:30am ESE 16 23 - - - - 10 Partly cloudy - 16.1 1022.2 0.0
04/08:24am ESE 17 24 - - - - 10 Partly cloudy - 16.1 1021.9 0.0
04/08:02am ESE 16 22 - - - - 10 Partly cloudy - 16.1 1021.8 0.0
04/08:00am ESE 17 22 - - - - 10 Partly cloudy - 16.1 1021.8 0.0
04/07:30am SE 19 25 - - - - 10 Partly cloudy - 15.9 1021.6 0.0
04/07:00am ESE 14 18 - - - - 10 Partly cloudy - 15.7 1021.5 0.0
04/06:30am SE 16 21 - - - - 10 Partly cloudy - 15.7 1021.2 0.0
04/06:00am SE 16 20 - - - - 10 Cloudy - 15.8 1021.3 0.0
04/05:30am ESE 16 19 - - - - 10 Partly cloudy - 15.7 1020.8 0.0
04/05:00am SE 12 17 - - - - 10 Partly cloudy - 15.8 1021.8 0.0
04/04:30am SE 13 16 - - - - 10 Partly cloudy - 15.8 1022.2 0.0
04/04:00am SE 14 22 - - - - 10 Partly cloudy - 16.1 1022.4 0.0
04/03:57am SE 15 22 - - - - 10 Partly cloudy - 16.1 1022.0 0.0
04/03:30am ESE 18 23 - - - - 10 Partly cloudy - 16.0 1020.0 0.0
04/03:18am ESE 19 25 - - - - 10 Cloudy - 16.0 1020.2 0.0
04/03:00am SE 16 21 - - - - 10 Cloudy - 16.0 1020.3 0.0
04/02:54am SE 17 27 - - - - 10 Partly cloudy - 16.1 1021.0 0.0
04/02:39am SE 20 30 - - - - 10 Partly cloudy - 15.8 1018.9 0.0
04/02:30am SE 20 28 - - - - 10 Partly cloudy - 15.9 1019.7 0.0
04/02:13am SE 17 22 - - - - 10 Partly cloudy - 16.2 1020.9 0.0
04/02:00am SE 14 19 - - - - 10 Partly cloudy - 16.2 1021.6 0.0
04/01:47am SSE 17 22 - - - - 10 Partly cloudy - 16.3 1021.9 0.0
04/01:30am SE 15 21 - - - - 10 Partly cloudy - 16.1 1021.6 0.0
04/01:00am SE 17 23 - - - - 10 - - 15.9 1021.0 0.0
04/12:30am ESE 16 21 - - - - 10 Partly cloudy - 16.0 1021.3 0.0
04/12:00am SE 18 23 - - - - 10 Cloudy - 16.0 1021.3 0.0
 
Date/Time
CDT
Wind Sea
Height
m
Swell Vis
km
Cloud Weather Temp
°C
Press
MSL
hPa
Rain since
9am
mm
Dir  Spd
kts
Gust
kts
Height
m
Period
s
Dir
03/11:30pm SE 17 23 - - - - 10 Partly cloudy - 16.3 1022.5 0.0
03/11:00pm SSE 13 17 - - - - 10 Partly cloudy - 16.5 1023.4 0.0
03/10:30pm SE 14 18 - - - - 10 Partly cloudy - 16.4 1022.2 0.0
03/10:25pm SE 14 18 - - - - 10 Partly cloudy - 16.5 1022.3 0.0
03/10:00pm SE 13 17 - - - - 10 Partly cloudy - 16.5 1022.1 0.0
03/09:30pm SE 15 20 - - - - 10 Partly cloudy - 16.5 1021.3 0.0
03/09:26pm SE 16 20 - - - - 10 Partly cloudy - 16.4 1021.2 0.0
03/09:00pm SE 15 20 - - - - 10 Mostly clear - 16.4 1020.9 0.0
03/08:30pm SE 18 23 - - - - 10 Partly cloudy - 16.7 1020.3 0.0
03/08:00pm SE 19 23 - - - - 10 - - 17.4 1019.9 0.0
03/07:30pm SE 20 27 - - - - 10 - - 17.4 1019.2 0.0
03/07:00pm SE 21 27 - - - - 10 - - 18.0 1019.0 0.0
03/06:30pm SE 21 27 - - - - 10 - - 18.0 1018.8 0.0
03/06:00pm SE 21 27 - - - - 10 Partly cloudy - 18.7 1018.6 0.0
03/05:30pm SE 23 28 - - - - 10 - - 18.5 1018.1 0.0
03/05:00pm SE 24 30 - - - - 10 - - 20.2 1018.0 0.0

Other formats

Comma delimited format used in spreadsheet applications
http://www.bom.gov.au/fwo/IDS60701/IDS60701.94651.axf

JavaScript Object Notation format (JSON) in row-major order
http://www.bom.gov.au/fwo/IDS60701/IDS60701.94651.json

Data quality

Most of these data are generated automatically and are frequently updated. Quality checks on data are not normally performed. It is possible for incorrect values to appear. Refer to information at About Latest Weather Observations and please check the disclaimer before using these data.